sensor_id;sensor_type;location;lat;lon;timestamp;pressure;altitude;pressure_sealevel;temperature;humidity
26775;BME280;14362;51.902;7.626;2022-12-05T00:01:30;101117.22;;;2.93;100.00
26775;BME280;14362;51.902;7.626;2022-12-05T00:05:38;101119.19;;;2.98;100.00
26775;BME280;14362;51.902;7.626;2022-12-05T00:09:40;101115.88;;;2.96;100.00
26775;BME280;14362;51.902;7.626;2022-12-05T00:13:43;101116.63;;;2.86;100.00
26775;BME280;14362;51.902;7.626;2022-12-05T00:17:45;101108.91;;;2.83;100.00
26775;BME280;14362;51.902;7.626;2022-12-05T00:21:46;101119.00;;;3.09;100.00
26775;BME280;14362;51.902;7.626;2022-12-05T00:25:48;101116.97;;;2.95;100.00
26775;BME280;14362;51.902;7.626;2022-12-05T00:29:51;101110.69;;;3.04;100.00
26775;BME280;14362;51.902;7.626;2022-12-05T00:33:53;101121.72;;;3.04;100.00
26775;BME280;14362;51.902;7.626;2022-12-05T00:37:54;101115.88;;;2.96;100.00
26775;BME280;14362;51.902;7.626;2022-12-05T00:41:55;101113.72;;;3.07;100.00
26775;BME280;14362;51.902;7.626;2022-12-05T00:46:01;101112.06;;;3.02;100.00
26775;BME280;14362;51.902;7.626;2022-12-05T00:50:03;101111.72;;;2.93;100.00
26775;BME280;14362;51.902;7.626;2022-12-05T00:54:07;101107.03;;;2.94;100.00
26775;BME280;14362;51.902;7.626;2022-12-05T00:58:09;101109.75;;;2.89;100.00
26775;BME280;14362;51.902;7.626;2022-12-05T01:02:12;101110.84;;;2.88;100.00
26775;BME280;14362;51.902;7.626;2022-12-05T01:06:14;101103.72;;;2.92;100.00
26775;BME280;14362;51.902;7.626;2022-12-05T01:10:16;101110.88;;;2.93;100.00
26775;BME280;14362;51.902;7.626;2022-12-05T01:14:21;101110.31;;;2.91;100.00
26775;BME280;14362;51.902;7.626;2022-12-05T01:18:24;101099.09;;;3.02;100.00
26775;BME280;14362;51.902;7.626;2022-12-05T01:22:26;101108.13;;;2.93;100.00
26775;BME280;14362;51.902;7.626;2022-12-05T01:26:27;101110.66;;;2.99;100.00
26775;BME280;14362;51.902;7.626;2022-12-05T01:30:29;101115.00;;;2.90;100.00
26775;BME280;14362;51.902;7.626;2022-12-05T01:34:32;101105.63;;;2.86;100.00
26775;BME280;14362;51.902;7.626;2022-12-05T01:38:33;101114.78;;;2.97;100.00
26775;BME280;14362;51.902;7.626;2022-12-05T01:42:35;101123.88;;;3.02;100.00
26775;BME280;14362;51.902;7.626;2022-12-05T01:46:38;101121.66;;;2.99;100.00
26775;BME280;14362;51.902;7.626;2022-12-05T01:50:42;101123.31;;;3.00;100.00
26775;BME280;14362;51.902;7.626;2022-12-05T01:54:45;101119.53;;;3.06;100.00
26775;BME280;14362;51.902;7.626;2022-12-05T01:58:49;101130.22;;;2.98;100.00
26775;BME280;14362;51.902;7.626;2022-12-05T02:02:54;101120.84;;;2.99;100.00
26775;BME280;14362;51.902;7.626;2022-12-05T02:06:58;101118.94;;;3.04;100.00
26775;BME280;14362;51.902;7.626;2022-12-05T02:10:59;101126.72;;;3.17;100.00
26775;BME280;14362;51.902;7.626;2022-12-05T02:15:13;101125.56;;;3.03;100.00
26775;BME280;14362;51.902;7.626;2022-12-05T02:19:33;101136.28;;;3.04;100.00
26775;BME280;14362;51.902;7.626;2022-12-05T02:23:58;101134.00;;;2.92;100.00
26775;BME280;14362;51.902;7.626;2022-12-05T02:28:18;101128.50;;;2.92;100.00
26775;BME280;14362;51.902;7.626;2022-12-05T02:36:55;101140.91;;;2.94;100.00
26775;BME280;14362;51.902;7.626;2022-12-05T02:41:07;101131.53;;;2.90;100.00
26775;BME280;14362;51.902;7.626;2022-12-05T02:45:14;101133.47;;;2.95;100.00
26775;BME280;14362;51.902;7.626;2022-12-05T02:49:22;101130.44;;;2.91;100.00
26775;BME280;14362;51.902;7.626;2022-12-05T02:53:26;101129.97;;;3.04;100.00
26775;BME280;14362;51.902;7.626;2022-12-05T02:57:28;101132.91;;;2.93;100.00
26775;BME280;14362;51.902;7.626;2022-12-05T03:01:31;101135.72;;;2.98;100.00
26775;BME280;14362;51.902;7.626;2022-12-05T03:05:42;101141.44;;;2.91;100.00
26775;BME280;14362;51.902;7.626;2022-12-05T03:09:48;101129.91;;;2.99;100.00
26775;BME280;14362;51.902;7.626;2022-12-05T03:13:54;101128.84;;;3.00;100.00
26775;BME280;14362;51.902;7.626;2022-12-05T03:18:03;101125.56;;;3.03;100.00
26775;BME280;14362;51.902;7.626;2022-12-05T03:22:09;101126.59;;;2.92;100.00
26775;BME280;14362;51.902;7.626;2022-12-05T03:26:21;101119.47;;;3.01;100.00
26775;BME280;14362;51.902;7.626;2022-12-05T03:30:28;101121.34;;;2.91;100.00
26775;BME280;14362;51.902;7.626;2022-12-05T03:34:41;101118.88;;;2.94;100.00
26775;BME280;14362;51.902;7.626;2022-12-05T03:38:48;101116.13;;;2.94;100.00
26775;BME280;14362;51.902;7.626;2022-12-05T03:42:55;101117.00;;;3.04;100.00
26775;BME280;14362;51.902;7.626;2022-12-05T03:47:02;101119.75;;;3.00;100.00
26775;BME280;14362;51.902;7.626;2022-12-05T03:51:07;101123.56;;;2.94;100.00
26775;BME280;14362;51.902;7.626;2022-12-05T03:55:13;101121.75;;;3.09;100.00
26775;BME280;14362;51.902;7.626;2022-12-05T03:59:21;101122.84;;;3.08;100.00
26775;BME280;14362;51.902;7.626;2022-12-05T04:03:29;101120.53;;;2.95;100.00
26775;BME280;14362;51.902;7.626;2022-12-05T04:07:39;101127.41;;;2.93;100.00
26775;BME280;14362;51.902;7.626;2022-12-05T04:11:47;101124.94;;;2.96;100.00
26775;BME280;14362;51.902;7.626;2022-12-05T04:15:55;101126.88;;;2.96;100.00
26775;BME280;14362;51.902;7.626;2022-12-05T04:20:30;101134.09;;;3.02;100.00
26775;BME280;14362;51.902;7.626;2022-12-05T04:24:53;101131.53;;;2.95;100.00
26775;BME280;14362;51.902;7.626;2022-12-05T04:29:21;101135.16;;;2.96;100.00
26775;BME280;14362;51.902;7.626;2022-12-05T04:33:30;101141.50;;;3.01;100.00
26775;BME280;14362;51.902;7.626;2022-12-05T04:37:36;101142.63;;;3.05;100.00
26775;BME280;14362;51.902;7.626;2022-12-05T04:41:46;101142.03;;;2.98;100.00
26775;BME280;14362;51.902;7.626;2022-12-05T04:45:51;101149.44;;;2.93;100.00
26775;BME280;14362;51.902;7.626;2022-12-05T04:49:55;101138.41;;;2.93;100.00
26775;BME280;14362;51.902;7.626;2022-12-05T04:54:01;101138.19;;;2.99;100.00
26775;BME280;14362;51.902;7.626;2022-12-05T04:58:07;101142.59;;;3.00;100.00
26775;BME280;14362;51.902;7.626;2022-12-05T05:02:13;101144.75;;;2.93;100.00
26775;BME280;14362;51.902;7.626;2022-12-05T05:06:17;101135.38;;;2.94;100.00
26775;BME280;14362;51.902;7.626;2022-12-05T05:10:21;101130.44;;;2.91;100.00
26775;BME280;14362;51.902;7.626;2022-12-05T05:14:27;101136.25;;;2.95;100.00
26775;BME280;14362;51.902;7.626;2022-12-05T05:18:30;101133.53;;;3.00;100.00
26775;BME280;14362;51.902;7.626;2022-12-05T05:22:31;101142.84;;;2.94;100.00
26775;BME280;14362;51.902;7.626;2022-12-05T05:26:34;101138.41;;;2.93;100.00
26775;BME280;14362;51.902;7.626;2022-12-05T05:30:36;101148.06;;;2.95;100.00
26775;BME280;14362;51.902;7.626;2022-12-05T05:34:39;101150.56;;;2.97;100.00
26775;BME280;14362;51.902;7.626;2022-12-05T05:38:42;101146.09;;;2.91;100.00
26775;BME280;14362;51.902;7.626;2022-12-05T05:42:45;101151.69;;;3.01;100.00
26775;BME280;14362;51.902;7.626;2022-12-05T05:46:47;101154.94;;;2.93;100.00
26775;BME280;14362;51.902;7.626;2022-12-05T05:50:50;101154.13;;;2.92;100.00
26775;BME280;14362;51.902;7.626;2022-12-05T05:54:51;101147.00;;;3.01;100.00
26775;BME280;14362;51.902;7.626;2022-12-05T05:58:56;101149.47;;;2.98;100.00
26775;BME280;14362;51.902;7.626;2022-12-05T06:02:59;101151.75;;;3.10;100.00
26775;BME280;14362;51.902;7.626;2022-12-05T06:07:01;101154.47;;;3.01;100.00
26775;BME280;14362;51.902;7.626;2022-12-05T06:11:03;101157.47;;;2.99;100.00
26775;BME280;14362;51.902;7.626;2022-12-05T06:15:06;101159.16;;;3.05;100.00
26775;BME280;14362;51.902;7.626;2022-12-05T06:19:08;101166.91;;;3.13;100.00
26775;BME280;14362;51.902;7.626;2022-12-05T06:23:11;101168.22;;;3.01;100.00
26775;BME280;14362;51.902;7.626;2022-12-05T06:27:12;101162.47;;;3.07;100.00
26775;BME280;14362;51.902;7.626;2022-12-05T06:31:15;101169.66;;;3.08;100.00
26775;BME280;14362;51.902;7.626;2022-12-05T06:35:17;101163.63;;;3.11;100.00
26775;BME280;14362;51.902;7.626;2022-12-05T06:39:20;101166.84;;;3.03;100.00
26775;BME280;14362;51.902;7.626;2022-12-05T06:43:21;101172.94;;;3.05;100.00
26775;BME280;14362;51.902;7.626;2022-12-05T06:47:22;101173.19;;;3.03;100.00
26775;BME280;14362;51.902;7.626;2022-12-05T06:51:24;101175.16;;;3.08;100.00
26775;BME280;14362;51.902;7.626;2022-12-05T06:55:27;101174.06;;;3.09;100.00
26775;BME280;14362;51.902;7.626;2022-12-05T06:59:28;101174.31;;;3.07;100.00
26775;BME280;14362;51.902;7.626;2022-12-05T07:03:29;101177.88;;;3.03;100.00
26775;BME280;14362;51.902;7.626;2022-12-05T07:07:31;101180.34;;;3.04;100.00
26775;BME280;14362;51.902;7.626;2022-12-05T07:11:34;101188.59;;;3.00;100.00
26775;BME280;14362;51.902;7.626;2022-12-05T07:15:36;101183.41;;;3.08;100.00
26775;BME280;14362;51.902;7.626;2022-12-05T07:19:37;101199.31;;;3.01;100.00
26775;BME280;14362;51.902;7.626;2022-12-05T07:23:39;101197.41;;;3.02;100.00
26775;BME280;14362;51.902;7.626;2022-12-05T07:27:42;101194.16;;;3.09;100.00
26775;BME280;14362;51.902;7.626;2022-12-05T07:31:43;101192.25;;;3.10;100.00
26775;BME280;14362;51.902;7.626;2022-12-05T07:35:45;101194.91;;;3.00;100.00
26775;BME280;14362;51.902;7.626;2022-12-05T07:39:46;101201.00;;;3.02;100.00
26775;BME280;14362;51.902;7.626;2022-12-05T07:43:50;101212.56;;;3.04;100.00
26775;BME280;14362;51.902;7.626;2022-12-05T07:47:52;101208.13;;;2.98;100.00
26775;BME280;14362;51.902;7.626;2022-12-05T07:51:53;101206.22;;;3.03;100.00
26775;BME280;14362;51.902;7.626;2022-12-05T07:55:57;101211.44;;;3.00;100.00
26775;BME280;14362;51.902;7.626;2022-12-05T08:00:00;101219.69;;;3.00;100.00
26775;BME280;14362;51.902;7.626;2022-12-05T08:04:02;101222.25;;;3.11;100.00
26775;BME280;14362;51.902;7.626;2022-12-05T08:08:04;101221.06;;;3.02;100.00
26775;BME280;14362;51.902;7.626;2022-12-05T08:12:05;101215.56;;;2.98;100.00
26775;BME280;14362;51.902;7.626;2022-12-05T08:16:11;101216.69;;;3.02;100.00
26775;BME280;14362;51.902;7.626;2022-12-05T08:20:13;101219.75;;;3.05;100.00
26775;BME280;14362;51.902;7.626;2022-12-05T08:24:15;101229.34;;;3.02;100.00
26775;BME280;14362;51.902;7.626;2022-12-05T08:28:16;101228.22;;;2.99;100.00
26775;BME280;14362;51.902;7.626;2022-12-05T08:32:19;101240.91;;;3.00;100.00
26775;BME280;14362;51.902;7.626;2022-12-05T08:36:20;101234.56;;;2.99;100.00
26775;BME280;14362;51.902;7.626;2022-12-05T08:40:22;101251.34;;;2.98;100.00
26775;BME280;14362;51.902;7.626;2022-12-05T08:44:23;101242.00;;;2.99;100.00
26775;BME280;14362;51.902;7.626;2022-12-05T08:48:27;101256.84;;;2.98;100.00
26775;BME280;14362;51.902;7.626;2022-12-05T08:52:29;101248.31;;;2.99;100.00
26775;BME280;14362;51.902;7.626;2022-12-05T08:56:31;101245.91;;;3.07;100.00
26775;BME280;14362;51.902;7.626;2022-12-05T09:00:33;101251.03;;;2.94;100.00
26775;BME280;14362;51.902;7.626;2022-12-05T09:04:36;101254.28;;;2.86;100.00
26775;BME280;14362;51.902;7.626;2022-12-05T09:08:38;101256.22;;;2.91;100.00
26775;BME280;14362;51.902;7.626;2022-12-05T09:12:39;101255.72;;;2.94;100.00
26775;BME280;14362;51.902;7.626;2022-12-05T09:16:42;101256.53;;;2.94;100.00
26775;BME280;14362;51.902;7.626;2022-12-05T09:20:45;101264.28;;;2.97;100.00
26775;BME280;14362;51.902;7.626;2022-12-05T09:24:47;101265.28;;;2.86;100.00
26775;BME280;14362;51.902;7.626;2022-12-05T09:28:49;101266.88;;;2.82;100.00
26775;BME280;14362;51.902;7.626;2022-12-05T09:32:50;101267.69;;;2.78;100.00
26775;BME280;14362;51.902;7.626;2022-12-05T09:36:53;101277.25;;;2.75;100.00
26775;BME280;14362;51.902;7.626;2022-12-05T09:41:06;101277.25;;;2.75;100.00
26775;BME280;14362;51.902;7.626;2022-12-05T09:45:21;101275.88;;;2.73;100.00
26775;BME280;14362;51.902;7.626;2022-12-05T09:49:25;101283.69;;;2.81;100.00
26775;BME280;14362;51.902;7.626;2022-12-05T09:53:30;101274.78;;;2.74;100.00
26775;BME280;14362;51.902;7.626;2022-12-05T09:57:34;101273.91;;;2.68;100.00
26775;BME280;14362;51.902;7.626;2022-12-05T10:01:40;101273.34;;;2.66;100.00
26775;BME280;14362;51.902;7.626;2022-12-05T10:05:49;101279.34;;;2.63;100.00
26775;BME280;14362;51.902;7.626;2022-12-05T10:10:04;101270.00;;;2.64;100.00
26775;BME280;14362;51.902;7.626;2022-12-05T10:14:12;101273.06;;;2.68;100.00
26775;BME280;14362;51.902;7.626;2022-12-05T10:18:27;101268.06;;;2.65;100.00
26775;BME280;14362;51.902;7.626;2022-12-05T10:22:37;101272.50;;;2.66;100.00
26775;BME280;14362;51.902;7.626;2022-12-05T10:26:45;101270.53;;;2.61;100.00
26775;BME280;14362;51.902;7.626;2022-12-05T10:30:46;101267.47;;;2.58;100.00
26775;BME280;14362;51.902;7.626;2022-12-05T10:34:49;101261.47;;;2.61;100.00
26775;BME280;14362;51.902;7.626;2022-12-05T10:38:51;101258.44;;;2.62;100.00
26775;BME280;14362;51.902;7.626;2022-12-05T10:42:54;101275.25;;;2.66;100.00
26775;BME280;14362;51.902;7.626;2022-12-05T10:46:55;101258.72;;;2.66;100.00
26775;BME280;14362;51.902;7.626;2022-12-05T10:50:57;101262.63;;;2.70;100.00
26775;BME280;14362;51.902;7.626;2022-12-05T10:55:03;101257.63;;;2.67;100.00
26775;BME280;14362;51.902;7.626;2022-12-05T10:59:07;101254.06;;;2.66;100.00
26775;BME280;14362;51.902;7.626;2022-12-05T11:03:22;101252.13;;;2.67;100.00
26775;BME280;14362;51.902;7.626;2022-12-05T11:07:30;101255.03;;;2.55;100.00
26775;BME280;14362;51.902;7.626;2022-12-05T11:11:32;101253.44;;;2.59;100.00
26775;BME280;14362;51.902;7.626;2022-12-05T11:15:43;101255.38;;;2.59;100.00
26775;BME280;14362;51.902;7.626;2022-12-05T11:19:45;101250.91;;;2.53;100.00
26775;BME280;14362;51.902;7.626;2022-12-05T11:23:47;101251.41;;;2.50;100.00
26775;BME280;14362;51.902;7.626;2022-12-05T11:27:48;101242.59;;;2.48;100.00
26775;BME280;14362;51.902;7.626;2022-12-05T11:31:51;101248.56;;;2.40;100.00
26775;BME280;14362;51.902;7.626;2022-12-05T11:35:54;101245.75;;;2.35;100.00
26775;BME280;14362;51.902;7.626;2022-12-05T11:39:58;101250.38;;;2.29;100.00
26775;BME280;14362;51.902;7.626;2022-12-05T11:44:17;101234.75;;;2.35;100.00
26775;BME280;14362;51.902;7.626;2022-12-05T11:48:32;101243.28;;;2.33;100.00
26775;BME280;14362;51.902;7.626;2022-12-05T11:52:50;101238.22;;;2.25;100.00
26775;BME280;14362;51.902;7.626;2022-12-05T11:56:54;101241.47;;;2.22;100.00
26775;BME280;14362;51.902;7.626;2022-12-05T12:01:05;101238.66;;;2.17;100.00
26775;BME280;14362;51.902;7.626;2022-12-05T12:05:17;101238.94;;;2.16;100.00
26775;BME280;14362;51.902;7.626;2022-12-05T12:09:31;101241.59;;;2.06;100.00
26775;BME280;14362;51.902;7.626;2022-12-05T12:13:47;101239.50;;;2.18;100.00
26775;BME280;14362;51.902;7.626;2022-12-05T12:17:53;101244.94;;;2.13;100.00
26775;BME280;14362;51.902;7.626;2022-12-05T12:22:10;101240.22;;;2.08;100.00
26775;BME280;14362;51.902;7.626;2022-12-05T12:26:26;101241.03;;;2.09;100.00
26775;BME280;14362;51.902;7.626;2022-12-05T12:30:38;101242.41;;;2.06;100.00
26775;BME280;14362;51.902;7.626;2022-12-05T12:39:27;101231.59;;;2.00;100.00
26775;BME280;14362;51.902;7.626;2022-12-05T12:43:44;101230.53;;;2.01;100.00
26775;BME280;14362;51.902;7.626;2022-12-05T12:48:01;101230.94;;;1.93;100.00
26775;BME280;14362;51.902;7.626;2022-12-05T12:52:14;101223.75;;;1.87;100.00
26775;BME280;14362;51.902;7.626;2022-12-05T12:56:25;101228.97;;;1.89;100.00
26775;BME280;14362;51.902;7.626;2022-12-05T13:00:40;101222.09;;;1.86;100.00
26775;BME280;14362;51.902;7.626;2022-12-05T13:04:52;101223.19;;;1.85;100.00
26775;BME280;14362;51.902;7.626;2022-12-05T13:08:57;101224.50;;;1.83;100.00
26775;BME280;14362;51.902;7.626;2022-12-05T13:13:01;101220.94;;;1.82;100.00
26775;BME280;14362;51.902;7.626;2022-12-05T13:17:05;101220.66;;;1.84;100.00
26775;BME280;14362;51.902;7.626;2022-12-05T13:21:08;101218.19;;;1.82;100.00
26775;BME280;14362;51.902;7.626;2022-12-05T13:25:13;101218.25;;;1.87;100.00
26775;BME280;14362;51.902;7.626;2022-12-05T13:29:20;101223.19;;;1.85;100.00
26775;BME280;14362;51.902;7.626;2022-12-05T13:33:25;101214.09;;;1.85;100.00
26775;BME280;14362;51.902;7.626;2022-12-05T13:37:28;101229.50;;;1.86;100.00
26775;BME280;14362;51.902;7.626;2022-12-05T13:41:50;101221.25;;;1.86;100.00
26775;BME280;14362;51.902;7.626;2022-12-05T13:46:18;101225.34;;;1.83;100.00
26775;BME280;14362;51.902;7.626;2022-12-05T13:50:31;101225.34;;;1.83;100.00
26775;BME280;14362;51.902;7.626;2022-12-05T13:54:41;101230.50;;;1.80;100.00
26775;BME280;14362;51.902;7.626;2022-12-05T13:58:48;101230.00;;;1.83;100.00
26775;BME280;14362;51.902;7.626;2022-12-05T14:02:59;101226.16;;;1.84;100.00
26775;BME280;14362;51.902;7.626;2022-12-05T14:07:07;101238.81;;;1.85;100.00
26775;BME280;14362;51.902;7.626;2022-12-05T14:11:10;101227.00;;;1.84;100.00
26775;BME280;14362;51.902;7.626;2022-12-05T14:15:26;101230.00;;;1.83;100.00
26775;BME280;14362;51.902;7.626;2022-12-05T14:19:56;101224.84;;;1.86;100.00
26775;BME280;14362;51.902;7.626;2022-12-05T14:24:06;101234.69;;;1.82;100.00
26775;BME280;14362;51.902;7.626;2022-12-05T14:28:16;101233.31;;;1.85;100.00
26775;BME280;14362;51.902;7.626;2022-12-05T14:32:23;101230.00;;;1.83;100.00
26775;BME280;14362;51.902;7.626;2022-12-05T14:36:29;101233.59;;;1.83;100.00
26775;BME280;14362;51.902;7.626;2022-12-05T14:40:32;101233.00;;;1.81;100.00
26775;BME280;14362;51.902;7.626;2022-12-05T14:44:34;101231.03;;;1.77;100.00
26775;BME280;14362;51.902;7.626;2022-12-05T14:48:38;101225.16;;;1.68;100.00
26775;BME280;14362;51.902;7.626;2022-12-05T14:52:42;101227.94;;;1.73;100.00
26775;BME280;14362;51.902;7.626;2022-12-05T14:56:46;101228.78;;;1.74;100.00
26775;BME280;14362;51.902;7.626;2022-12-05T15:00:52;101225.69;;;1.70;100.00
26775;BME280;14362;51.902;7.626;2022-12-05T15:04:58;101227.38;;;1.71;100.00
26775;BME280;14362;51.902;7.626;2022-12-05T15:09:06;101238.63;;;1.70;100.00
26775;BME280;14362;51.902;7.626;2022-12-05T15:13:12;101234.78;;;1.71;100.00
26775;BME280;14362;51.902;7.626;2022-12-05T15:17:17;101238.94;;;1.73;100.00
26775;BME280;14362;51.902;7.626;2022-12-05T15:21:23;101250.50;;;1.75;100.00
26775;BME280;14362;51.902;7.626;2022-12-05T15:25:31;101247.44;;;1.72;100.00
26775;BME280;14362;51.902;7.626;2022-12-05T15:29:33;101253.19;;;1.70;100.00
26775;BME280;14362;51.902;7.626;2022-12-05T15:33:35;101255.94;;;1.70;100.00
26775;BME280;14362;51.902;7.626;2022-12-05T15:37:44;101254.03;;;1.71;100.00
26775;BME280;14362;51.902;7.626;2022-12-05T15:41:50;101260.34;;;1.71;100.00
26775;BME280;14362;51.902;7.626;2022-12-05T15:46:14;101266.38;;;1.68;100.00
26775;BME280;14362;51.902;7.626;2022-12-05T15:50:24;101268.84;;;1.70;100.00
26775;BME280;14362;51.902;7.626;2022-12-05T15:54:30;101268.53;;;1.66;100.00
26775;BME280;14362;51.902;7.626;2022-12-05T15:58:37;101271.28;;;1.66;100.00
26775;BME280;14362;51.902;7.626;2022-12-05T16:02:43;101263.28;;;1.65;100.00
26775;BME280;14362;51.902;7.626;2022-12-05T16:06:47;101271.28;;;1.66;100.00
26775;BME280;14362;51.902;7.626;2022-12-05T16:10:49;101269.63;;;1.65;100.00
26775;BME280;14362;51.902;7.626;2022-12-05T16:14:54;101268.34;;;1.73;100.00
26775;BME280;14362;51.902;7.626;2022-12-05T16:18:58;101269.66;;;1.70;100.00
26775;BME280;14362;51.902;7.626;2022-12-05T16:23:04;101273.53;;;1.69;100.00
26775;BME280;14362;51.902;7.626;2022-12-05T16:27:13;101285.34;;;1.70;100.00
26775;BME280;14362;51.902;7.626;2022-12-05T16:31:16;101281.50;;;1.71;100.00
26775;BME280;14362;51.902;7.626;2022-12-05T16:35:29;101280.91;;;1.69;100.00
26775;BME280;14362;51.902;7.626;2022-12-05T16:39:32;101287.00;;;1.71;100.00
26775;BME280;14362;51.902;7.626;2022-12-05T16:43:42;101284.16;;;1.66;100.00
26775;BME280;14362;51.902;7.626;2022-12-05T16:48:08;101284.75;;;1.68;100.00
26775;BME280;14362;51.902;7.626;2022-12-05T16:52:14;101288.34;;;1.68;100.00
26775;BME280;14362;51.902;7.626;2022-12-05T16:56:19;101282.28;;;1.66;100.00
26775;BME280;14362;51.902;7.626;2022-12-05T17:00:22;101274.03;;;1.66;100.00
26775;BME280;14362;51.902;7.626;2022-12-05T17:04:25;101280.84;;;1.64;100.00
26775;BME280;14362;51.902;7.626;2022-12-05T17:08:26;101277.84;;;1.65;100.00
26775;BME280;14362;51.902;7.626;2022-12-05T17:12:28;101277.00;;;1.65;100.00
26775;BME280;14362;51.902;7.626;2022-12-05T17:16:29;101281.91;;;1.63;100.00
26775;BME280;14362;51.902;7.626;2022-12-05T17:20:32;101283.00;;;1.62;100.00
26775;BME280;14362;51.902;7.626;2022-12-05T17:24:34;101292.59;;;1.59;100.00
26775;BME280;14362;51.902;7.626;2022-12-05T17:28:35;101278.28;;;1.57;100.00
26775;BME280;14362;51.902;7.626;2022-12-05T17:32:36;101282.69;;;1.58;100.00
26775;BME280;14362;51.902;7.626;2022-12-05T17:36:39;101282.09;;;1.56;100.00
26775;BME280;14362;51.902;7.626;2022-12-05T17:40:40;101284.84;;;1.56;100.00
26775;BME280;14362;51.902;7.626;2022-12-05T17:44:42;101279.34;;;1.56;100.00
26775;BME280;14362;51.902;7.626;2022-12-05T17:48:44;101279.34;;;1.56;100.00
26775;BME280;14362;51.902;7.626;2022-12-05T17:52:48;101285.94;;;1.55;100.00
26775;BME280;14362;51.902;7.626;2022-12-05T17:56:49;101292.00;;;1.57;100.00
26775;BME280;14362;51.902;7.626;2022-12-05T18:00:51;101298.84;;;1.55;100.00
26775;BME280;14362;51.902;7.626;2022-12-05T18:04:52;101306.50;;;1.53;100.00
26775;BME280;14362;51.902;7.626;2022-12-05T18:08:55;101306.00;;;1.56;100.00
26775;BME280;14362;51.902;7.626;2022-12-05T18:12:57;101310.06;;;1.53;100.00
26775;BME280;14362;51.902;7.626;2022-12-05T18:16:59;101302.91;;;1.52;100.00
26775;BME280;14362;51.902;7.626;2022-12-05T18:21:05;101302.69;;;1.54;100.00
26775;BME280;14362;51.902;7.626;2022-12-05T18:25:09;101303.50;;;1.54;100.00
26775;BME280;14362;51.902;7.626;2022-12-05T18:29:10;101313.66;;;1.54;100.00
26775;BME280;14362;51.902;7.626;2022-12-05T18:33:11;101313.41;;;1.55;100.00
26775;BME280;14362;51.902;7.626;2022-12-05T18:37:13;101311.25;;;1.57;100.00
26775;BME280;14362;51.902;7.626;2022-12-05T18:41:16;101310.16;;;1.58;100.00
26775;BME280;14362;51.902;7.626;2022-12-05T18:45:18;101310.44;;;1.57;100.00
26775;BME280;14362;51.902;7.626;2022-12-05T18:49:20;101308.50;;;1.57;100.00
26775;BME280;14362;51.902;7.626;2022-12-05T18:53:22;101315.06;;;1.56;100.00
26775;BME280;14362;51.902;7.626;2022-12-05T18:57:25;101318.31;;;1.53;100.00
26775;BME280;14362;51.902;7.626;2022-12-05T19:01:28;101322.22;;;1.57;100.00
26775;BME280;14362;51.902;7.626;2022-12-05T19:05:29;101337.63;;;1.58;100.00
26775;BME280;14362;51.902;7.626;2022-12-05T19:09:31;101334.81;;;1.53;100.00
26775;BME280;14362;51.902;7.626;2022-12-05T19:13:34;101326.91;;;1.57;100.00
26775;BME280;14362;51.902;7.626;2022-12-05T19:17:35;101331.91;;;1.60;100.00
26775;BME280;14362;51.902;7.626;2022-12-05T19:21:36;101339.28;;;1.59;100.00
26775;BME280;14362;51.902;7.626;2022-12-05T19:25:38;101345.38;;;1.61;100.00
26775;BME280;14362;51.902;7.626;2022-12-05T19:29:41;101337.63;;;1.58;100.00
26775;BME280;14362;51.902;7.626;2022-12-05T19:33:44;101341.22;;;1.59;100.00
26775;BME280;14362;51.902;7.626;2022-12-05T19:37:45;101333.81;;;1.59;100.00
26775;BME280;14362;51.902;7.626;2022-12-05T19:41:47;101335.72;;;1.59;100.00
26775;BME280;14362;51.902;7.626;2022-12-05T19:45:50;101344.78;;;1.59;100.00
26775;BME280;14362;51.902;7.626;2022-12-05T19:49:52;101343.44;;;1.62;100.00
26775;BME280;14362;51.902;7.626;2022-12-05T19:53:53;101339.03;;;1.61;100.00
26775;BME280;14362;51.902;7.626;2022-12-05T19:57:54;101329.97;;;1.60;100.00
26775;BME280;14362;51.902;7.626;2022-12-05T20:01:57;101331.66;;;1.61;100.00
26775;BME280;14362;51.902;7.626;2022-12-05T20:05:59;101335.78;;;1.64;100.00
26775;BME280;14362;51.902;7.626;2022-12-05T20:10:01;101326.41;;;1.60;100.00
26775;BME280;14362;51.902;7.626;2022-12-05T20:14:02;101339.63;;;1.63;100.00
26775;BME280;14362;51.902;7.626;2022-12-05T20:18:05;101340.47;;;1.63;100.00
26775;BME280;14362;51.902;7.626;2022-12-05T20:22:06;101341.06;;;1.65;100.00
26775;BME280;14362;51.902;7.626;2022-12-05T20:26:09;101342.94;;;1.65;100.00
26775;BME280;14362;51.902;7.626;2022-12-05T20:30:11;101334.72;;;1.65;100.00
26775;BME280;14362;51.902;7.626;2022-12-05T20:34:14;101346.53;;;1.65;100.00
26775;BME280;14362;51.902;7.626;2022-12-05T20:38:15;101337.81;;;1.68;100.00
26775;BME280;14362;51.902;7.626;2022-12-05T20:42:16;101340.28;;;1.70;100.00
26775;BME280;14362;51.902;7.626;2022-12-05T20:46:19;101338.63;;;1.69;100.00
26775;BME280;14362;51.902;7.626;2022-12-05T20:50:22;101335.59;;;1.70;100.00
26775;BME280;14362;51.902;7.626;2022-12-05T20:54:23;101339.22;;;1.71;100.00
26775;BME280;14362;51.902;7.626;2022-12-05T20:58:25;101345.28;;;1.73;100.00
26775;BME280;14362;51.902;7.626;2022-12-05T21:02:26;101344.69;;;1.71;100.00
26775;BME280;14362;51.902;7.626;2022-12-05T21:06:31;101344.19;;;1.74;100.00
26775;BME280;14362;51.902;7.626;2022-12-05T21:10:32;101336.78;;;1.74;100.00
26775;BME280;14362;51.902;7.626;2022-12-05T21:14:34;101336.28;;;1.77;100.00
26775;BME280;14362;51.902;7.626;2022-12-05T21:18:35;101326.13;;;1.78;100.00
26775;BME280;14362;51.902;7.626;2022-12-05T21:22:38;101324.69;;;1.75;100.00
26775;BME280;14362;51.902;7.626;2022-12-05T21:26:40;101319.78;;;1.77;100.00
26775;BME280;14362;51.902;7.626;2022-12-05T21:30:41;101325.28;;;1.77;100.00